Valburg, Netherlands
Current Conditions -  °F | °C
As of 9:55 PM on Sunday 23 Nov 2014 (Local Time) from EHDL Reporting Station
Overcast Overcast  
Wind Chill: 52°   Ceiling: 2500
Heat Index: 52°   Visibility: 6mi
Dew Point: 48°   Wind: 7mph
Humidity: 88%   Direction: 200°SSW
Pressure: 29.94"   Gusts: NA
Location:  51.91°N, 5.79°E
Report Text: EHDL 232055Z AUTO 20006KT 9999 SCT022 OVC025 11/09 Q1014 WHT
Loading
Personal Weather Stations






























Interactive Weather Map New forecast layout! Learn more

10-Day Weather Forecast

Advertisements
Track Severe Weather on mobile